sensor_id;sensor_type;location;lat;lon;timestamp;temperature;humidity
50556;DHT22;36508;52.512;13.450;2024-02-21T00:00:51;8.70;99.90
50556;DHT22;36508;52.512;13.450;2024-02-21T00:03:17;8.70;99.90
50556;DHT22;36508;52.512;13.450;2024-02-21T00:05:43;8.70;99.90
50556;DHT22;36508;52.512;13.450;2024-02-21T00:08:08;8.70;99.90
50556;DHT22;36508;52.512;13.450;2024-02-21T00:10:34;8.70;99.90
50556;DHT22;36508;52.512;13.450;2024-02-21T00:13:00;8.70;99.90
50556;DHT22;36508;52.512;13.450;2024-02-21T00:15:26;8.70;99.90
50556;DHT22;36508;52.512;13.450;2024-02-21T00:17:52;8.70;99.90
50556;DHT22;36508;52.512;13.450;2024-02-21T00:20:17;8.70;99.90
50556;DHT22;36508;52.512;13.450;2024-02-21T00:22:44;8.70;99.90
50556;DHT22;36508;52.512;13.450;2024-02-21T00:25:10;8.70;99.90
50556;DHT22;36508;52.512;13.450;2024-02-21T00:27:35;8.60;99.90
50556;DHT22;36508;52.512;13.450;2024-02-21T00:30:02;8.60;99.90
50556;DHT22;36508;52.512;13.450;2024-02-21T00:32:28;8.60;99.90
50556;DHT22;36508;52.512;13.450;2024-02-21T00:34:53;8.60;99.90
50556;DHT22;36508;52.512;13.450;2024-02-21T00:37:19;8.60;99.90
50556;DHT22;36508;52.512;13.450;2024-02-21T00:39:45;8.60;99.90
50556;DHT22;36508;52.512;13.450;2024-02-21T00:42:10;8.70;99.90
50556;DHT22;36508;52.512;13.450;2024-02-21T00:44:36;8.70;99.90
50556;DHT22;36508;52.512;13.450;2024-02-21T00:47:01;8.70;99.90
50556;DHT22;36508;52.512;13.450;2024-02-21T00:49:27;8.60;99.90
50556;DHT22;36508;52.512;13.450;2024-02-21T00:51:53;8.60;99.90
50556;DHT22;36508;52.512;13.450;2024-02-21T00:54:18;8.60;99.90
50556;DHT22;36508;52.512;13.450;2024-02-21T00:56:44;8.60;99.90
50556;DHT22;36508;52.512;13.450;2024-02-21T00:59:09;8.60;99.90
50556;DHT22;36508;52.512;13.450;2024-02-21T01:01:35;8.50;99.90
50556;DHT22;36508;52.512;13.450;2024-02-21T01:04:01;8.60;99.90
50556;DHT22;36508;52.512;13.450;2024-02-21T01:06:26;8.60;99.90
50556;DHT22;36508;52.512;13.450;2024-02-21T01:08:52;8.60;99.90
50556;DHT22;36508;52.512;13.450;2024-02-21T01:11:17;8.60;99.90
50556;DHT22;36508;52.512;13.450;2024-02-21T01:13:44;8.60;99.90
50556;DHT22;36508;52.512;13.450;2024-02-21T01:16:09;8.50;99.90
50556;DHT22;36508;52.512;13.450;2024-02-21T01:18:37;8.60;99.90
50556;DHT22;36508;52.512;13.450;2024-02-21T01:21:03;8.60;99.90
50556;DHT22;36508;52.512;13.450;2024-02-21T01:23:33;8.60;99.90
50556;DHT22;36508;52.512;13.450;2024-02-21T01:25:59;8.60;99.90
50556;DHT22;36508;52.512;13.450;2024-02-21T01:28:24;8.60;99.90
50556;DHT22;36508;52.512;13.450;2024-02-21T01:30:50;8.60;99.90
50556;DHT22;36508;52.512;13.450;2024-02-21T01:33:16;8.50;99.90
50556;DHT22;36508;52.512;13.450;2024-02-21T01:35:41;8.60;99.90
50556;DHT22;36508;52.512;13.450;2024-02-21T01:38:07;8.60;99.90
50556;DHT22;36508;52.512;13.450;2024-02-21T01:40:33;8.60;99.90
50556;DHT22;36508;52.512;13.450;2024-02-21T01:42:58;8.60;99.90
50556;DHT22;36508;52.512;13.450;2024-02-21T01:45:24;8.60;99.90
50556;DHT22;36508;52.512;13.450;2024-02-21T01:47:50;8.60;99.90
50556;DHT22;36508;52.512;13.450;2024-02-21T01:50:17;8.60;99.90
50556;DHT22;36508;52.512;13.450;2024-02-21T01:52:45;8.60;99.90
50556;DHT22;36508;52.512;13.450;2024-02-21T01:55:13;8.60;99.90
50556;DHT22;36508;52.512;13.450;2024-02-21T01:57:40;8.70;99.90
50556;DHT22;36508;52.512;13.450;2024-02-21T02:00:07;8.60;99.90
50556;DHT22;36508;52.512;13.450;2024-02-21T02:02:33;8.60;99.90
50556;DHT22;36508;52.512;13.450;2024-02-21T02:04:59;8.60;99.90
50556;DHT22;36508;52.512;13.450;2024-02-21T02:07:26;8.60;99.90
50556;DHT22;36508;52.512;13.450;2024-02-21T02:09:51;8.60;99.90
50556;DHT22;36508;52.512;13.450;2024-02-21T02:12:17;8.60;99.90
50556;DHT22;36508;52.512;13.450;2024-02-21T02:14:43;8.60;99.90
50556;DHT22;36508;52.512;13.450;2024-02-21T02:17:08;8.70;99.90
50556;DHT22;36508;52.512;13.450;2024-02-21T02:19:35;8.70;99.90
50556;DHT22;36508;52.512;13.450;2024-02-21T02:22:14;8.60;99.90
50556;DHT22;36508;52.512;13.450;2024-02-21T02:24:43;8.60;99.90
50556;DHT22;36508;52.512;13.450;2024-02-21T02:27:09;8.60;99.90
50556;DHT22;36508;52.512;13.450;2024-02-21T02:29:35;8.50;99.90
50556;DHT22;36508;52.512;13.450;2024-02-21T02:32:00;8.50;99.90
50556;DHT22;36508;52.512;13.450;2024-02-21T02:34:26;8.40;99.90
50556;DHT22;36508;52.512;13.450;2024-02-21T02:36:51;8.40;99.90
50556;DHT22;36508;52.512;13.450;2024-02-21T02:39:17;8.40;99.90
50556;DHT22;36508;52.512;13.450;2024-02-21T02:41:43;8.40;99.90
50556;DHT22;36508;52.512;13.450;2024-02-21T02:44:08;8.30;99.90
50556;DHT22;36508;52.512;13.450;2024-02-21T02:46:34;8.30;99.90
50556;DHT22;36508;52.512;13.450;2024-02-21T02:48:59;8.20;99.90
50556;DHT22;36508;52.512;13.450;2024-02-21T02:51:25;8.20;99.90
50556;DHT22;36508;52.512;13.450;2024-02-21T02:53:50;8.20;99.90
50556;DHT22;36508;52.512;13.450;2024-02-21T02:56:16;8.10;99.90
50556;DHT22;36508;52.512;13.450;2024-02-21T02:58:45;8.10;99.90
50556;DHT22;36508;52.512;13.450;2024-02-21T03:01:10;8.10;99.90
50556;DHT22;36508;52.512;13.450;2024-02-21T03:03:36;8.10;99.90
50556;DHT22;36508;52.512;13.450;2024-02-21T03:06:01;8.10;99.90
50556;DHT22;36508;52.512;13.450;2024-02-21T03:08:27;8.10;99.90
50556;DHT22;36508;52.512;13.450;2024-02-21T03:10:53;8.10;99.90
50556;DHT22;36508;52.512;13.450;2024-02-21T03:13:18;8.00;99.90
50556;DHT22;36508;52.512;13.450;2024-02-21T03:15:44;8.00;99.90
50556;DHT22;36508;52.512;13.450;2024-02-21T03:18:10;8.00;99.90
50556;DHT22;36508;52.512;13.450;2024-02-21T03:20:35;8.00;99.90
50556;DHT22;36508;52.512;13.450;2024-02-21T03:23:01;8.00;99.90
50556;DHT22;36508;52.512;13.450;2024-02-21T03:25:27;8.00;99.90
50556;DHT22;36508;52.512;13.450;2024-02-21T03:27:53;8.00;99.90
50556;DHT22;36508;52.512;13.450;2024-02-21T03:32:49;8.00;99.90
50556;DHT22;36508;52.512;13.450;2024-02-21T03:35:15;7.90;99.90
50556;DHT22;36508;52.512;13.450;2024-02-21T03:37:41;7.90;99.90
50556;DHT22;36508;52.512;13.450;2024-02-21T03:40:08;7.90;99.90
50556;DHT22;36508;52.512;13.450;2024-02-21T03:42:34;7.90;99.90
50556;DHT22;36508;52.512;13.450;2024-02-21T03:45:00;7.90;99.90
50556;DHT22;36508;52.512;13.450;2024-02-21T03:47:25;7.80;99.90
50556;DHT22;36508;52.512;13.450;2024-02-21T03:49:51;7.80;99.90
50556;DHT22;36508;52.512;13.450;2024-02-21T03:52:16;7.80;99.90
50556;DHT22;36508;52.512;13.450;2024-02-21T03:54:42;7.80;99.90
50556;DHT22;36508;52.512;13.450;2024-02-21T03:57:08;7.80;99.90
50556;DHT22;36508;52.512;13.450;2024-02-21T03:59:33;7.80;99.90
50556;DHT22;36508;52.512;13.450;2024-02-21T04:01:59;7.80;99.90
50556;DHT22;36508;52.512;13.450;2024-02-21T04:04:25;7.80;99.90
50556;DHT22;36508;52.512;13.450;2024-02-21T04:06:51;7.80;99.90
50556;DHT22;36508;52.512;13.450;2024-02-21T04:09:17;7.80;99.90
50556;DHT22;36508;52.512;13.450;2024-02-21T04:11:43;7.80;99.90
50556;DHT22;36508;52.512;13.450;2024-02-21T04:14:09;7.80;99.90
50556;DHT22;36508;52.512;13.450;2024-02-21T04:16:36;7.80;99.90
50556;DHT22;36508;52.512;13.450;2024-02-21T04:19:02;7.80;99.90
50556;DHT22;36508;52.512;13.450;2024-02-21T04:21:28;7.80;99.90
50556;DHT22;36508;52.512;13.450;2024-02-21T04:23:53;7.80;99.90
50556;DHT22;36508;52.512;13.450;2024-02-21T04:26:19;7.80;99.90
50556;DHT22;36508;52.512;13.450;2024-02-21T04:28:47;7.70;99.90
50556;DHT22;36508;52.512;13.450;2024-02-21T04:31:13;7.80;99.90
50556;DHT22;36508;52.512;13.450;2024-02-21T04:33:38;7.80;99.90
50556;DHT22;36508;52.512;13.450;2024-02-21T04:36:04;7.80;99.90
50556;DHT22;36508;52.512;13.450;2024-02-21T04:38:30;7.80;99.90
50556;DHT22;36508;52.512;13.450;2024-02-21T04:40:56;7.80;99.90
50556;DHT22;36508;52.512;13.450;2024-02-21T04:43:24;7.80;99.90
50556;DHT22;36508;52.512;13.450;2024-02-21T04:45:50;7.80;99.90
50556;DHT22;36508;52.512;13.450;2024-02-21T04:48:16;7.80;99.90
50556;DHT22;36508;52.512;13.450;2024-02-21T04:50:42;7.80;99.90
50556;DHT22;36508;52.512;13.450;2024-02-21T04:53:07;7.80;99.90
50556;DHT22;36508;52.512;13.450;2024-02-21T04:55:33;7.80;99.90
50556;DHT22;36508;52.512;13.450;2024-02-21T04:57:59;7.80;99.90
50556;DHT22;36508;52.512;13.450;2024-02-21T05:00:27;7.80;99.90
50556;DHT22;36508;52.512;13.450;2024-02-21T05:02:53;7.80;99.90
50556;DHT22;36508;52.512;13.450;2024-02-21T05:05:18;7.80;99.90
50556;DHT22;36508;52.512;13.450;2024-02-21T05:07:44;7.80;99.90
50556;DHT22;36508;52.512;13.450;2024-02-21T05:10:10;7.80;99.90
50556;DHT22;36508;52.512;13.450;2024-02-21T05:12:36;7.80;99.90
50556;DHT22;36508;52.512;13.450;2024-02-21T05:15:02;7.80;99.90
50556;DHT22;36508;52.512;13.450;2024-02-21T05:17:28;7.80;99.90
50556;DHT22;36508;52.512;13.450;2024-02-21T05:19:54;7.80;99.90
50556;DHT22;36508;52.512;13.450;2024-02-21T05:22:19;7.80;99.90
50556;DHT22;36508;52.512;13.450;2024-02-21T05:24:45;7.80;99.90
50556;DHT22;36508;52.512;13.450;2024-02-21T05:27:10;7.80;99.90
50556;DHT22;36508;52.512;13.450;2024-02-21T05:29:36;7.90;99.90
50556;DHT22;36508;52.512;13.450;2024-02-21T05:32:02;7.90;99.90
50556;DHT22;36508;52.512;13.450;2024-02-21T05:34:27;7.90;99.90
50556;DHT22;36508;52.512;13.450;2024-02-21T05:36:53;7.90;99.90
50556;DHT22;36508;52.512;13.450;2024-02-21T05:39:19;7.90;99.90
50556;DHT22;36508;52.512;13.450;2024-02-21T05:41:45;7.90;99.90
50556;DHT22;36508;52.512;13.450;2024-02-21T05:44:11;8.00;99.90
50556;DHT22;36508;52.512;13.450;2024-02-21T05:46:36;8.00;99.90
50556;DHT22;36508;52.512;13.450;2024-02-21T05:49:02;7.90;99.90
50556;DHT22;36508;52.512;13.450;2024-02-21T05:51:27;7.90;99.90
50556;DHT22;36508;52.512;13.450;2024-02-21T05:53:53;7.90;99.90
50556;DHT22;36508;52.512;13.450;2024-02-21T05:56:18;7.90;99.90
50556;DHT22;36508;52.512;13.450;2024-02-21T05:58:44;8.00;99.90
50556;DHT22;36508;52.512;13.450;2024-02-21T06:01:10;8.00;99.90
50556;DHT22;36508;52.512;13.450;2024-02-21T06:03:36;7.90;99.90
50556;DHT22;36508;52.512;13.450;2024-02-21T06:06:02;7.90;99.90
50556;DHT22;36508;52.512;13.450;2024-02-21T06:08:28;7.90;99.90
50556;DHT22;36508;52.512;13.450;2024-02-21T06:10:54;7.90;99.90
50556;DHT22;36508;52.512;13.450;2024-02-21T06:13:21;7.90;99.90
50556;DHT22;36508;52.512;13.450;2024-02-21T06:15:47;7.90;99.90
50556;DHT22;36508;52.512;13.450;2024-02-21T06:18:12;7.90;99.90
50556;DHT22;36508;52.512;13.450;2024-02-21T06:20:38;7.90;99.90
50556;DHT22;36508;52.512;13.450;2024-02-21T06:23:06;7.90;99.90
50556;DHT22;36508;52.512;13.450;2024-02-21T06:25:31;7.90;99.90
50556;DHT22;36508;52.512;13.450;2024-02-21T06:27:58;8.00;99.90
50556;DHT22;36508;52.512;13.450;2024-02-21T06:30:24;8.00;99.90
50556;DHT22;36508;52.512;13.450;2024-02-21T06:32:49;8.00;99.90
50556;DHT22;36508;52.512;13.450;2024-02-21T06:35:15;7.90;99.90
50556;DHT22;36508;52.512;13.450;2024-02-21T06:37:40;7.90;99.90
50556;DHT22;36508;52.512;13.450;2024-02-21T06:40:07;7.90;99.90
50556;DHT22;36508;52.512;13.450;2024-02-21T06:42:32;7.90;99.90
50556;DHT22;36508;52.512;13.450;2024-02-21T06:44:58;7.90;99.90
50556;DHT22;36508;52.512;13.450;2024-02-21T06:47:23;7.90;99.90
50556;DHT22;36508;52.512;13.450;2024-02-21T06:49:50;8.00;99.90
50556;DHT22;36508;52.512;13.450;2024-02-21T06:52:18;8.00;99.90
50556;DHT22;36508;52.512;13.450;2024-02-21T06:54:46;8.00;99.90
50556;DHT22;36508;52.512;13.450;2024-02-21T06:57:13;8.10;99.90
50556;DHT22;36508;52.512;13.450;2024-02-21T06:59:40;8.00;99.90
50556;DHT22;36508;52.512;13.450;2024-02-21T07:02:05;8.10;99.90
50556;DHT22;36508;52.512;13.450;2024-02-21T07:04:31;8.10;99.90
50556;DHT22;36508;52.512;13.450;2024-02-21T07:06:56;8.10;99.90
50556;DHT22;36508;52.512;13.450;2024-02-21T07:09:22;8.20;99.90
50556;DHT22;36508;52.512;13.450;2024-02-21T07:11:47;8.20;99.90
50556;DHT22;36508;52.512;13.450;2024-02-21T07:14:14;8.20;99.90
50556;DHT22;36508;52.512;13.450;2024-02-21T07:16:40;8.10;99.90
50556;DHT22;36508;52.512;13.450;2024-02-21T07:19:06;8.20;99.90
50556;DHT22;36508;52.512;13.450;2024-02-21T07:21:32;8.20;99.90
50556;DHT22;36508;52.512;13.450;2024-02-21T07:23:57;8.20;99.90
50556;DHT22;36508;52.512;13.450;2024-02-21T07:26:23;8.30;99.90
50556;DHT22;36508;52.512;13.450;2024-02-21T07:28:49;8.30;99.90
50556;DHT22;36508;52.512;13.450;2024-02-21T07:31:15;8.30;99.90
50556;DHT22;36508;52.512;13.450;2024-02-21T07:33:40;8.40;99.90
50556;DHT22;36508;52.512;13.450;2024-02-21T07:36:11;8.40;99.90
50556;DHT22;36508;52.512;13.450;2024-02-21T07:38:38;8.50;99.90
50556;DHT22;36508;52.512;13.450;2024-02-21T07:41:04;8.40;99.90
50556;DHT22;36508;52.512;13.450;2024-02-21T07:43:30;8.40;99.90
50556;DHT22;36508;52.512;13.450;2024-02-21T07:45:55;8.40;99.90
50556;DHT22;36508;52.512;13.450;2024-02-21T07:48:21;8.40;99.90
50556;DHT22;36508;52.512;13.450;2024-02-21T07:50:50;8.40;99.90
50556;DHT22;36508;52.512;13.450;2024-02-21T07:53:16;8.40;99.90
50556;DHT22;36508;52.512;13.450;2024-02-21T07:55:42;8.40;99.90
50556;DHT22;36508;52.512;13.450;2024-02-21T07:58:07;8.40;99.90
50556;DHT22;36508;52.512;13.450;2024-02-21T08:00:33;8.40;99.90
50556;DHT22;36508;52.512;13.450;2024-02-21T08:02:59;8.40;99.90
50556;DHT22;36508;52.512;13.450;2024-02-21T08:05:24;8.40;99.90
50556;DHT22;36508;52.512;13.450;2024-02-21T08:07:50;8.40;99.90
50556;DHT22;36508;52.512;13.450;2024-02-21T08:10:15;8.50;99.90
50556;DHT22;36508;52.512;13.450;2024-02-21T08:12:41;8.40;99.90
50556;DHT22;36508;52.512;13.450;2024-02-21T08:15:07;8.40;99.90
50556;DHT22;36508;52.512;13.450;2024-02-21T08:17:36;8.40;99.90
50556;DHT22;36508;52.512;13.450;2024-02-21T08:20:01;8.50;99.90
50556;DHT22;36508;52.512;13.450;2024-02-21T08:22:28;8.50;99.90
50556;DHT22;36508;52.512;13.450;2024-02-21T08:24:54;8.50;99.90
50556;DHT22;36508;52.512;13.450;2024-02-21T08:27:19;8.50;99.90
50556;DHT22;36508;52.512;13.450;2024-02-21T08:29:45;8.50;99.90
50556;DHT22;36508;52.512;13.450;2024-02-21T08:32:11;8.60;99.90
50556;DHT22;36508;52.512;13.450;2024-02-21T08:34:36;8.60;99.90
50556;DHT22;36508;52.512;13.450;2024-02-21T08:37:02;8.60;99.90
50556;DHT22;36508;52.512;13.450;2024-02-21T08:39:28;8.60;99.90
50556;DHT22;36508;52.512;13.450;2024-02-21T08:41:56;8.70;99.90
50556;DHT22;36508;52.512;13.450;2024-02-21T08:44:27;8.80;99.90
50556;DHT22;36508;52.512;13.450;2024-02-21T08:46:53;8.90;99.90
50556;DHT22;36508;52.512;13.450;2024-02-21T08:49:18;9.00;99.90
50556;DHT22;36508;52.512;13.450;2024-02-21T08:51:44;9.00;99.90
50556;DHT22;36508;52.512;13.450;2024-02-21T08:54:11;8.90;99.90
50556;DHT22;36508;52.512;13.450;2024-02-21T08:56:37;9.00;99.90
50556;DHT22;36508;52.512;13.450;2024-02-21T08:59:02;8.90;99.90
50556;DHT22;36508;52.512;13.450;2024-02-21T09:01:29;8.90;99.90
50556;DHT22;36508;52.512;13.450;2024-02-21T09:03:54;9.00;99.90
50556;DHT22;36508;52.512;13.450;2024-02-21T09:06:22;9.00;99.90
50556;DHT22;36508;52.512;13.450;2024-02-21T09:13:51;9.20;99.90
50556;DHT22;36508;52.512;13.450;2024-02-21T09:16:17;9.10;99.90
50556;DHT22;36508;52.512;13.450;2024-02-21T09:18:42;9.10;99.90
50556;DHT22;36508;52.512;13.450;2024-02-21T09:21:08;9.10;99.90
50556;DHT22;36508;52.512;13.450;2024-02-21T09:23:34;9.20;99.90
50556;DHT22;36508;52.512;13.450;2024-02-21T09:25:59;9.20;99.90
50556;DHT22;36508;52.512;13.450;2024-02-21T09:28:29;9.30;99.90
50556;DHT22;36508;52.512;13.450;2024-02-21T09:30:54;9.40;99.90
50556;DHT22;36508;52.512;13.450;2024-02-21T09:33:20;9.50;99.90
50556;DHT22;36508;52.512;13.450;2024-02-21T09:35:45;9.50;99.90
50556;DHT22;36508;52.512;13.450;2024-02-21T09:38:12;9.60;99.90
50556;DHT22;36508;52.512;13.450;2024-02-21T09:40:38;9.70;99.90
50556;DHT22;36508;52.512;13.450;2024-02-21T09:43:06;9.60;99.90
50556;DHT22;36508;52.512;13.450;2024-02-21T09:45:34;9.70;99.90
50556;DHT22;36508;52.512;13.450;2024-02-21T09:50:57;9.60;99.90
50556;DHT22;36508;52.512;13.450;2024-02-21T09:53:24;9.70;99.90
50556;DHT22;36508;52.512;13.450;2024-02-21T09:55:50;9.70;99.90
50556;DHT22;36508;52.512;13.450;2024-02-21T09:58:17;9.70;99.90
50556;DHT22;36508;52.512;13.450;2024-02-21T10:00:42;9.80;99.90
50556;DHT22;36508;52.512;13.450;2024-02-21T10:03:08;9.80;99.90
50556;DHT22;36508;52.512;13.450;2024-02-21T10:05:37;9.90;99.90
50556;DHT22;36508;52.512;13.450;2024-02-21T10:08:04;10.00;99.90
50556;DHT22;36508;52.512;13.450;2024-02-21T10:10:29;10.00;99.90
50556;DHT22;36508;52.512;13.450;2024-02-21T10:12:56;10.00;99.90
50556;DHT22;36508;52.512;13.450;2024-02-21T10:15:23;10.00;99.90
50556;DHT22;36508;52.512;13.450;2024-02-21T10:17:59;10.10;99.90
50556;DHT22;36508;52.512;13.450;2024-02-21T10:20:25;10.10;99.90
50556;DHT22;36508;52.512;13.450;2024-02-21T10:23:01;10.10;99.90
50556;DHT22;36508;52.512;13.450;2024-02-21T10:25:28;10.10;99.90
50556;DHT22;36508;52.512;13.450;2024-02-21T10:27:54;10.10;99.90
50556;DHT22;36508;52.512;13.450;2024-02-21T10:30:20;10.10;99.90
50556;DHT22;36508;52.512;13.450;2024-02-21T10:32:55;10.20;99.90
50556;DHT22;36508;52.512;13.450;2024-02-21T10:35:33;10.20;99.90
50556;DHT22;36508;52.512;13.450;2024-02-21T10:37:59;10.20;99.90
50556;DHT22;36508;52.512;13.450;2024-02-21T10:40:26;10.20;99.90
50556;DHT22;36508;52.512;13.450;2024-02-21T10:42:59;10.10;99.90
50556;DHT22;36508;52.512;13.450;2024-02-21T10:45:35;10.10;99.90
50556;DHT22;36508;52.512;13.450;2024-02-21T10:48:11;10.20;99.90
50556;DHT22;36508;52.512;13.450;2024-02-21T10:51:00;10.20;99.90
50556;DHT22;36508;52.512;13.450;2024-02-21T10:58:38;10.30;99.90
50556;DHT22;36508;52.512;13.450;2024-02-21T11:01:05;10.20;99.90
50556;DHT22;36508;52.512;13.450;2024-02-21T11:03:31;10.10;99.90
50556;DHT22;36508;52.512;13.450;2024-02-21T11:05:58;10.10;99.90
50556;DHT22;36508;52.512;13.450;2024-02-21T11:08:24;10.10;99.90
50556;DHT22;36508;52.512;13.450;2024-02-21T11:10:50;10.10;99.90
50556;DHT22;36508;52.512;13.450;2024-02-21T11:13:16;10.00;99.90
50556;DHT22;36508;52.512;13.450;2024-02-21T11:15:41;10.00;99.90
50556;DHT22;36508;52.512;13.450;2024-02-21T11:18:07;10.10;99.90
50556;DHT22;36508;52.512;13.450;2024-02-21T11:20:33;10.30;99.90
50556;DHT22;36508;52.512;13.450;2024-02-21T11:23:00;10.60;99.90
50556;DHT22;36508;52.512;13.450;2024-02-21T11:25:26;10.90;99.90
50556;DHT22;36508;52.512;13.450;2024-02-21T11:28:03;11.10;99.90
50556;DHT22;36508;52.512;13.450;2024-02-21T11:30:32;11.00;99.90
50556;DHT22;36508;52.512;13.450;2024-02-21T11:33:05;11.30;99.90
50556;DHT22;36508;52.512;13.450;2024-02-21T11:35:34;11.10;99.90
50556;DHT22;36508;52.512;13.450;2024-02-21T11:38:10;11.40;99.90
50556;DHT22;36508;52.512;13.450;2024-02-21T11:40:39;11.40;99.90
50556;DHT22;36508;52.512;13.450;2024-02-21T11:43:06;11.60;99.90
50556;DHT22;36508;52.512;13.450;2024-02-21T11:45:31;11.80;99.90
50556;DHT22;36508;52.512;13.450;2024-02-21T11:47:58;11.70;99.90
50556;DHT22;36508;52.512;13.450;2024-02-21T11:50:26;11.90;99.90
50556;DHT22;36508;52.512;13.450;2024-02-21T11:52:54;11.60;99.90
50556;DHT22;36508;52.512;13.450;2024-02-21T11:55:21;11.60;99.90
50556;DHT22;36508;52.512;13.450;2024-02-21T11:57:48;11.80;99.90
50556;DHT22;36508;52.512;13.450;2024-02-21T12:00:18;11.80;99.90
50556;DHT22;36508;52.512;13.450;2024-02-21T12:02:47;11.80;99.90
50556;DHT22;36508;52.512;13.450;2024-02-21T12:05:13;12.40;99.90
50556;DHT22;36508;52.512;13.450;2024-02-21T12:07:40;13.30;99.90
50556;DHT22;36508;52.512;13.450;2024-02-21T12:10:15;13.20;99.90
50556;DHT22;36508;52.512;13.450;2024-02-21T12:12:41;14.90;99.90
50556;DHT22;36508;52.512;13.450;2024-02-21T12:15:07;13.90;99.90
50556;DHT22;36508;52.512;13.450;2024-02-21T12:17:34;13.10;99.90
50556;DHT22;36508;52.512;13.450;2024-02-21T12:20:01;12.90;99.90
50556;DHT22;36508;52.512;13.450;2024-02-21T12:22:29;12.90;99.90
50556;DHT22;36508;52.512;13.450;2024-02-21T12:24:58;12.70;99.90
50556;DHT22;36508;52.512;13.450;2024-02-21T12:27:23;12.50;99.90
50556;DHT22;36508;52.512;13.450;2024-02-21T12:29:49;12.30;99.90
50556;DHT22;36508;52.512;13.450;2024-02-21T12:32:14;12.20;99.90
50556;DHT22;36508;52.512;13.450;2024-02-21T12:34:40;12.20;99.90
50556;DHT22;36508;52.512;13.450;2024-02-21T12:37:06;12.50;99.90
50556;DHT22;36508;52.512;13.450;2024-02-21T12:39:32;13.60;99.90
50556;DHT22;36508;52.512;13.450;2024-02-21T12:41:58;14.50;99.90
50556;DHT22;36508;52.512;13.450;2024-02-21T12:44:24;14.30;99.90
50556;DHT22;36508;52.512;13.450;2024-02-21T12:46:49;15.10;99.90
50556;DHT22;36508;52.512;13.450;2024-02-21T12:49:19;14.80;99.90
50556;DHT22;36508;52.512;13.450;2024-02-21T12:51:45;13.70;99.90
50556;DHT22;36508;52.512;13.450;2024-02-21T12:54:12;13.00;99.90
50556;DHT22;36508;52.512;13.450;2024-02-21T12:56:38;12.60;99.90
50556;DHT22;36508;52.512;13.450;2024-02-21T12:59:05;12.40;99.90
50556;DHT22;36508;52.512;13.450;2024-02-21T13:01:35;12.90;99.90
50556;DHT22;36508;52.512;13.450;2024-02-21T13:04:01;12.90;99.90
50556;DHT22;36508;52.512;13.450;2024-02-21T13:06:27;12.70;99.90
50556;DHT22;36508;52.512;13.450;2024-02-21T13:08:53;12.50;99.90
50556;DHT22;36508;52.512;13.450;2024-02-21T13:11:19;12.30;99.90
50556;DHT22;36508;52.512;13.450;2024-02-21T13:13:44;12.20;99.90
50556;DHT22;36508;52.512;13.450;2024-02-21T13:16:10;12.30;99.90
50556;DHT22;36508;52.512;13.450;2024-02-21T13:18:36;12.50;99.90
50556;DHT22;36508;52.512;13.450;2024-02-21T13:21:04;12.40;99.90
50556;DHT22;36508;52.512;13.450;2024-02-21T13:23:30;12.40;99.90
50556;DHT22;36508;52.512;13.450;2024-02-21T13:25:56;12.50;99.90
50556;DHT22;36508;52.512;13.450;2024-02-21T13:28:22;12.40;99.90
50556;DHT22;36508;52.512;13.450;2024-02-21T13:30:48;12.30;99.90
50556;DHT22;36508;52.512;13.450;2024-02-21T13:33:14;12.20;99.90
50556;DHT22;36508;52.512;13.450;2024-02-21T13:35:39;12.20;99.90
50556;DHT22;36508;52.512;13.450;2024-02-21T13:38:05;12.00;99.90
50556;DHT22;36508;52.512;13.450;2024-02-21T13:40:31;12.00;99.90
50556;DHT22;36508;52.512;13.450;2024-02-21T13:42:56;12.00;99.90
50556;DHT22;36508;52.512;13.450;2024-02-21T13:45:22;12.00;99.90
50556;DHT22;36508;52.512;13.450;2024-02-21T13:47:47;12.10;99.90
50556;DHT22;36508;52.512;13.450;2024-02-21T13:50:13;12.10;99.90
50556;DHT22;36508;52.512;13.450;2024-02-21T13:52:40;12.10;99.90
50556;DHT22;36508;52.512;13.450;2024-02-21T13:55:05;12.10;99.90
50556;DHT22;36508;52.512;13.450;2024-02-21T13:57:36;12.00;99.90
50556;DHT22;36508;52.512;13.450;2024-02-21T14:00:05;12.10;99.90
50556;DHT22;36508;52.512;13.450;2024-02-21T14:02:31;11.90;99.90
50556;DHT22;36508;52.512;13.450;2024-02-21T14:04:57;11.90;99.90
50556;DHT22;36508;52.512;13.450;2024-02-21T14:07:22;11.90;99.90
50556;DHT22;36508;52.512;13.450;2024-02-21T14:09:48;12.00;99.90
50556;DHT22;36508;52.512;13.450;2024-02-21T14:12:14;12.10;99.90
50556;DHT22;36508;52.512;13.450;2024-02-21T14:14:43;12.10;99.90
50556;DHT22;36508;52.512;13.450;2024-02-21T14:17:08;12.20;99.90
50556;DHT22;36508;52.512;13.450;2024-02-21T14:19:34;12.30;99.90
50556;DHT22;36508;52.512;13.450;2024-02-21T14:21:59;12.30;99.90
50556;DHT22;36508;52.512;13.450;2024-02-21T14:24:25;12.20;99.90
50556;DHT22;36508;52.512;13.450;2024-02-21T14:26:54;12.10;99.90
50556;DHT22;36508;52.512;13.450;2024-02-21T14:29:20;12.20;99.90
50556;DHT22;36508;52.512;13.450;2024-02-21T14:31:47;12.20;99.90
50556;DHT22;36508;52.512;13.450;2024-02-21T14:34:12;12.20;99.90
50556;DHT22;36508;52.512;13.450;2024-02-21T14:36:38;12.20;99.90
50556;DHT22;36508;52.512;13.450;2024-02-21T14:39:03;12.20;99.90
50556;DHT22;36508;52.512;13.450;2024-02-21T14:41:30;12.30;99.90
50556;DHT22;36508;52.512;13.450;2024-02-21T14:43:55;12.30;99.90
50556;DHT22;36508;52.512;13.450;2024-02-21T14:46:25;12.30;99.90
50556;DHT22;36508;52.512;13.450;2024-02-21T14:48:54;12.20;99.90
50556;DHT22;36508;52.512;13.450;2024-02-21T14:51:19;12.20;99.90
50556;DHT22;36508;52.512;13.450;2024-02-21T14:56:14;12.20;99.90
50556;DHT22;36508;52.512;13.450;2024-02-21T14:58:43;12.10;99.90
50556;DHT22;36508;52.512;13.450;2024-02-21T15:01:09;12.00;99.90
50556;DHT22;36508;52.512;13.450;2024-02-21T15:03:35;12.10;99.90
50556;DHT22;36508;52.512;13.450;2024-02-21T15:06:01;12.00;99.90
50556;DHT22;36508;52.512;13.450;2024-02-21T15:08:27;12.00;99.90
50556;DHT22;36508;52.512;13.450;2024-02-21T15:10:53;11.90;99.90
50556;DHT22;36508;52.512;13.450;2024-02-21T15:13:19;11.90;99.90
50556;DHT22;36508;52.512;13.450;2024-02-21T15:15:45;11.90;99.90
50556;DHT22;36508;52.512;13.450;2024-02-21T15:18:13;11.90;99.90
50556;DHT22;36508;52.512;13.450;2024-02-21T15:20:40;11.80;99.90
50556;DHT22;36508;52.512;13.450;2024-02-21T15:23:05;11.80;99.90
50556;DHT22;36508;52.512;13.450;2024-02-21T15:25:31;11.80;99.90
50556;DHT22;36508;52.512;13.450;2024-02-21T15:27:57;11.80;99.90
50556;DHT22;36508;52.512;13.450;2024-02-21T15:30:23;11.80;99.90
50556;DHT22;36508;52.512;13.450;2024-02-21T15:32:48;11.80;99.90
50556;DHT22;36508;52.512;13.450;2024-02-21T15:35:14;11.80;99.90
50556;DHT22;36508;52.512;13.450;2024-02-21T15:37:39;11.70;99.90